Time;durP1;ratioP1;P1;durP2;ratioP2;P2;SDS_P1;SDS_P2;PMS_P1;PMS_P2;Temp;Humidity;BMP_temperature;BMP_pressure;BME280_temperature;BME280_humidity;BME280_pressure;Samples;Min_cycle;Max_cycle;Signal;HPM_P1;HPM_P2
2022/06/12 21:16:16;;;;;;;2.60;2.40;;;23.10;35.00;;;;;;5115357;27;20542;-77
2022/06/12 21:18:43;;;;;;;6.70;2.20;;;22.90;35.50;;;;;;5117002;28;20493;-78
2022/06/12 21:21:12;;;;;;;2.70;2.13;;;23.00;34.50;;;;;;5117706;28;20501;-77
2022/06/12 21:23:39;;;;;;;2.93;2.23;;;23.10;34.30;;;;;;5116433;28;20511;-77
2022/06/12 21:26:06;;;;;;;2.70;2.50;;;23.20;34.20;;;;;;5101208;28;20446;-77
2022/06/12 21:28:33;;;;;;;2.60;2.40;;;23.20;34.50;;;;;;5095227;28;20444;-79
2022/06/12 21:31:00;;;;;;;6.97;2.17;;;23.20;34.30;;;;;;5090965;28;20451;-78
2022/06/12 21:33:28;;;;;;;4.00;3.10;;;23.30;34.40;;;;;;5090985;28;20467;-78
2022/06/12 21:35:55;;;;;;;3.23;2.67;;;23.40;34.20;;;;;;5090773;28;20491;-77
2022/06/12 21:38:22;;;;;;;2.50;2.30;;;23.50;34.50;;;;;;5089909;28;20456;-78
2022/06/12 21:40:49;;;;;;;2.57;2.37;;;23.50;34.70;;;;;;5091733;28;20450;-78
2022/06/12 21:43:16;;;;;;;3.20;2.40;;;23.60;34.00;;;;;;5091153;28;20471;-78
2022/06/12 21:45:44;;;;;;;3.97;2.60;;;23.60;33.50;;;;;;5101908;28;20487;-77
2022/06/12 21:48:12;;;;;;;3.77;2.27;;;23.60;33.90;;;;;;5100465;28;20479;-77
2022/06/12 21:50:40;;;;;;;5.50;2.13;;;23.60;34.30;;;;;;5093918;28;20455;-77
2022/06/12 21:55:51;;;;;;;2.50;2.33;;;23.50;33.80;;;;;;5090383;28;20574;-79
2022/06/12 21:58:18;;;;;;;3.27;2.40;;;23.50;34.20;;;;;;5089469;28;20478;-78
2022/06/12 22:00:45;;;;;;;4.53;2.70;;;23.60;34.10;;;;;;5090294;28;20468;-77
2022/06/12 22:03:12;;;;;;;2.80;2.60;;;23.60;33.30;;;;;;5091051;28;20452;-78
2022/06/12 22:05:40;;;;;;;2.93;2.20;;;23.70;32.40;;;;;;5089682;28;20490;-77
2022/06/12 22:08:08;;;;;;;2.73;1.90;;;23.80;32.00;;;;;;5091380;28;20966;-77
2022/06/12 22:10:35;;;;;;;2.10;1.90;;;23.90;32.10;;;;;;5091756;28;21001;-77
2022/06/12 22:13:04;;;;;;;2.93;2.57;;;23.90;32.10;;;;;;5087599;28;20467;-78
2022/06/12 22:15:31;;;;;;;2.43;2.00;;;24.00;32.20;;;;;;5091279;28;20495;-78
2022/06/12 22:17:58;;;;;;;2.43;2.23;;;23.90;32.10;;;;;;5092708;28;20539;-77
2022/06/12 22:20:27;;;;;;;3.63;2.33;;;23.80;33.60;;;;;;5092578;28;20524;-78
2022/06/12 22:22:55;;;;;;;4.63;2.20;;;23.70;34.70;;;;;;5092423;28;20455;-78
2022/06/12 22:25:22;;;;;;;2.43;2.23;;;23.50;35.00;;;;;;5091125;28;20471;-78
2022/06/12 22:27:49;;;;;;;4.47;2.73;;;23.40;35.70;;;;;;5076395;28;20517;-78
2022/06/12 22:30:16;;;;;;;3.40;3.10;;;23.30;35.80;;;;;;5077509;28;20472;-78
2022/06/12 22:32:43;;;;;;;2.73;2.07;;;23.20;35.90;;;;;;5078549;28;20464;-77
2022/06/12 22:35:10;;;;;;;3.17;2.23;;;23.20;36.10;;;;;;5078331;28;20979;-78
2022/06/12 22:37:38;;;;;;;4.77;2.47;;;23.20;35.60;;;;;;5082990;28;20460;-78
2022/06/12 22:40:09;;;;;;;3.60;2.27;;;23.30;35.10;;;;;;5091659;28;20476;-77
2022/06/12 22:42:36;;;;;;;6.13;3.10;;;23.30;35.80;;;;;;5099520;28;20417;-77
2022/06/12 22:45:03;;;;;;;2.23;2.07;;;23.10;37.90;;;;;;5099774;28;20523;-78
2022/06/12 22:47:30;;;;;;;2.97;2.13;;;23.00;39.10;;;;;;5098103;28;20453;-76
2022/06/12 22:49:57;;;;;;;3.97;2.50;;;22.80;39.60;;;;;;5080408;28;21039;-77
2022/06/12 22:52:24;;;;;;;4.57;2.23;;;22.70;39.20;;;;;;5092308;28;20471;-77
2022/06/12 22:54:51;;;;;;;4.47;2.50;;;22.60;38.70;;;;;;5086968;28;20515;-77
2022/06/12 22:57:19;;;;;;;5.40;2.20;;;22.60;38.00;;;;;;5089276;28;20430;-77
2022/06/12 22:59:46;;;;;;;5.53;2.30;;;22.60;41.20;;;;;;5090164;28;20482;-77
2022/06/12 23:02:14;;;;;;;2.43;2.07;;;22.40;43.30;;;;;;5081233;28;20560;-77
2022/06/12 23:04:43;;;;;;;7.83;2.37;;;21.90;46.50;;;;;;5092287;28;20528;-77
2022/06/12 23:07:10;;;;;;;2.53;2.03;;;21.50;48.20;;;;;;5090954;28;20461;-76
2022/06/12 23:09:36;;;;;;;2.47;2.10;;;21.40;49.20;;;;;;5089402;28;20484;-77
2022/06/12 23:12:04;;;;;;;7.47;2.20;;;21.20;49.00;;;;;;5085064;28;20458;-76
2022/06/12 23:14:35;;;;;;;2.53;2.20;;;21.00;49.80;;;;;;5082311;28;20488;-77
2022/06/12 23:17:02;;;;;;;5.70;2.30;;;20.90;51.10;;;;;;5080537;28;20510;-77
2022/06/12 23:19:29;;;;;;;2.67;2.27;;;20.80;53.40;;;;;;5081143;28;20525;-76
2022/06/12 23:21:56;;;;;;;5.83;2.50;;;20.60;55.40;;;;;;5074835;28;20466;-76
2022/06/12 23:24:22;;;;;;;4.10;2.10;;;20.60;56.90;;;;;;5075976;28;20478;-76
2022/06/12 23:26:49;;;;;;;2.83;2.50;;;20.50;58.60;;;;;;5075551;28;20445;-76
2022/06/12 23:29:16;;;;;;;2.23;2.03;;;20.50;59.10;;;;;;5079134;28;20980;-76
2022/06/12 23:31:45;;;;;;;3.77;2.20;;;20.50;59.10;;;;;;5087934;28;20496;-76
2022/06/12 23:34:12;;;;;;;2.50;2.13;;;20.50;59.70;;;;;;5081249;28;20497;-76
2022/06/12 23:36:41;;;;;;;4.23;2.50;;;20.40;60.10;;;;;;5075113;28;20558;-77
2022/06/12 23:39:08;;;;;;;4.53;2.80;;;20.30;60.40;;;;;;5074306;28;20452;-76
2022/06/12 23:41:34;;;;;;;4.87;2.30;;;20.20;60.80;;;;;;5075138;28;20461;-77
2022/06/12 23:44:01;;;;;;;5.10;2.73;;;20.20;59.50;;;;;;5076820;28;20472;-77
2022/06/12 23:46:30;;;;;;;6.70;2.60;;;20.20;59.70;;;;;;5076803;28;20448;-76
2022/06/12 23:49:00;;;;;;;2.83;2.60;;;20.20;59.70;;;;;;5077395;28;20948;-77
2022/06/12 23:51:30;;;;;;;4.03;2.40;;;20.20;58.90;;;;;;5077927;28;20540;-76
2022/06/12 23:53:58;;;;;;;4.97;2.30;;;20.20;59.70;;;;;;5081351;28;21016;-77
2022/06/12 23:56:26;;;;;;;6.67;2.23;;;20.20;59.20;;;;;;5081604;28;20484;-75
2022/06/12 23:58:54;;;;;;;2.93;2.20;;;20.20;59.10;;;;;;5088769;28;20465;-75
